createdAt,value
2023-05-02T00:00:03.177Z,14.50
2023-05-02T00:01:03.352Z,14.50
2023-05-02T00:02:02.715Z,14.10
2023-05-02T00:03:02.622Z,14.10
2023-05-02T00:04:02.469Z,14.10
2023-05-02T00:05:02.124Z,14.10
2023-05-02T00:06:02.113Z,14.10
2023-05-02T00:07:01.990Z,14.60
2023-05-02T00:08:02.012Z,14.60
2023-05-02T00:09:01.963Z,14.60
2023-05-02T00:10:02.151Z,14.60
2023-05-02T00:11:01.908Z,14.60
2023-05-02T00:12:01.885Z,14.40
2023-05-02T00:13:01.814Z,14.40
2023-05-02T00:14:01.884Z,14.40
2023-05-02T00:15:01.920Z,14.40
2023-05-02T00:16:02.082Z,14.40
2023-05-02T00:17:02.417Z,15.30
2023-05-02T00:18:02.333Z,15.30
2023-05-02T00:19:02.397Z,15.30
2023-05-02T00:20:02.328Z,15.30
2023-05-02T00:21:02.257Z,15.30
2023-05-02T00:22:02.178Z,14.90
2023-05-02T00:23:02.151Z,14.90
2023-05-02T00:24:02.553Z,14.90
2023-05-02T00:25:02.499Z,14.90
2023-05-02T00:26:02.566Z,14.90
2023-05-02T00:27:02.607Z,15.90
2023-05-02T00:28:02.564Z,15.90
2023-05-02T00:29:02.788Z,15.90
2023-05-02T00:30:03.000Z,15.90
2023-05-02T00:31:02.949Z,15.90
2023-05-02T00:32:03.021Z,16.10
2023-05-02T00:33:03.081Z,16.10
2023-05-02T00:34:03.002Z,16.10
2023-05-02T00:35:02.985Z,16.10
2023-05-02T00:36:02.923Z,16.10
2023-05-02T00:37:02.382Z,15.30
2023-05-02T00:38:02.108Z,15.30
2023-05-02T00:39:02.366Z,15.30
2023-05-02T00:40:02.386Z,15.30
2023-05-02T00:41:02.308Z,15.30
2023-05-02T00:42:02.012Z,14.30
2023-05-02T00:43:01.899Z,14.30
2023-05-02T00:44:01.893Z,14.30
2023-05-02T00:45:01.886Z,14.30
2023-05-02T00:46:01.946Z,14.30
2023-05-02T00:47:02.449Z,15.10
2023-05-02T00:48:02.448Z,15.10
2023-05-02T00:49:02.732Z,15.10
2023-05-02T00:50:03.027Z,15.10
2023-05-02T00:51:02.802Z,15.10
2023-05-02T00:52:02.658Z,14.30
2023-05-02T00:53:02.731Z,14.30
2023-05-02T00:54:02.695Z,14.30
2023-05-02T00:55:02.778Z,14.30
2023-05-02T00:56:02.798Z,14.30
2023-05-02T00:57:02.817Z,15.80
2023-05-02T00:58:02.778Z,15.80
2023-05-02T00:59:03.178Z,15.80
2023-05-02T01:00:02.861Z,15.80
2023-05-02T01:01:02.968Z,15.80
2023-05-02T01:02:02.006Z,15.10
2023-05-02T01:03:02.181Z,15.10
2023-05-02T01:04:02.507Z,15.10
2023-05-02T01:05:02.189Z,15.10
2023-05-02T01:06:02.297Z,15.10
2023-05-02T01:07:01.938Z,16.10
2023-05-02T01:08:02.063Z,16.10
2023-05-02T01:09:02.014Z,16.10
2023-05-02T01:10:01.940Z,16.10
2023-05-02T01:11:02.077Z,16.10
2023-05-02T01:12:02.039Z,16.40
2023-05-02T01:13:02.009Z,16.40
2023-05-02T01:14:01.988Z,16.40
2023-05-02T01:15:01.958Z,16.40
2023-05-02T01:16:01.916Z,16.40
2023-05-02T01:17:02.777Z,16.90
2023-05-02T01:18:02.404Z,16.90
2023-05-02T01:19:02.439Z,16.90
2023-05-02T01:20:02.661Z,16.90
2023-05-02T01:21:02.317Z,16.90
2023-05-02T01:22:02.046Z,16.90
2023-05-02T01:23:02.214Z,16.90
2023-05-02T01:24:02.228Z,16.90
2023-05-02T01:25:02.228Z,16.90
2023-05-02T01:26:02.225Z,16.90
2023-05-02T01:27:02.237Z,16.10
2023-05-02T01:28:02.243Z,16.10
2023-05-02T01:29:02.180Z,16.10
2023-05-02T01:30:02.349Z,16.10
2023-05-02T01:31:02.274Z,16.10
2023-05-02T01:32:02.292Z,16.40
2023-05-02T01:33:02.479Z,16.40
2023-05-02T01:34:02.259Z,16.40
2023-05-02T01:35:02.262Z,16.40
2023-05-02T01:36:02.271Z,16.40
2023-05-02T01:37:03.147Z,15.50
2023-05-02T01:38:02.697Z,15.50
2023-05-02T01:39:02.769Z,15.50
2023-05-02T01:40:02.970Z,15.50
2023-05-02T01:41:03.028Z,15.50
2023-05-02T01:42:02.085Z,15.20
2023-05-02T01:43:01.898Z,15.20
2023-05-02T01:44:01.806Z,15.20
2023-05-02T01:45:01.944Z,15.20
2023-05-02T01:46:02.160Z,15.20
2023-05-02T01:47:02.220Z,15.70
2023-05-02T01:48:01.816Z,15.70
2023-05-02T01:49:02.270Z,15.70
2023-05-02T01:50:02.538Z,15.70
2023-05-02T01:51:01.950Z,15.70
2023-05-02T01:52:02.682Z,17.30
2023-05-02T01:53:02.802Z,17.30
2023-05-02T01:54:02.282Z,17.30
2023-05-02T01:55:02.649Z,17.30
2023-05-02T01:56:02.671Z,17.30
2023-05-02T01:57:02.917Z,15.20
2023-05-02T01:58:02.928Z,15.20
2023-05-02T01:59:02.951Z,15.20
2023-05-02T02:00:03.216Z,15.20
2023-05-02T02:01:02.554Z,15.20
2023-05-02T02:02:02.943Z,15.50
2023-05-02T02:03:02.978Z,15.50
2023-05-02T02:04:03.047Z,15.50
2023-05-02T02:05:03.097Z,15.50
2023-05-02T02:06:03.054Z,15.50
2023-05-02T02:07:02.810Z,15.10
2023-05-02T02:08:02.967Z,15.10
2023-05-02T02:09:02.654Z,15.10
2023-05-02T02:10:02.750Z,15.10
2023-05-02T02:11:02.515Z,15.10
2023-05-02T02:12:03.074Z,14.40
2023-05-02T02:13:03.053Z,14.40
2023-05-02T02:14:03.073Z,14.40
2023-05-02T02:15:03.324Z,14.40
2023-05-02T02:16:03.006Z,14.40
2023-05-02T02:17:03.778Z,16.60
2023-05-02T02:18:03.799Z,16.60
2023-05-02T02:19:03.589Z,16.60
2023-05-02T02:20:03.588Z,16.60
2023-05-02T02:21:03.586Z,16.60
2023-05-02T02:22:03.482Z,18.60
2023-05-02T02:23:03.333Z,18.60
2023-05-02T02:24:03.372Z,18.60
2023-05-02T02:25:03.452Z,18.60
2023-05-02T02:26:03.025Z,18.60
2023-05-02T02:27:03.779Z,23.30
2023-05-02T02:28:03.587Z,23.30
2023-05-02T02:29:03.436Z,23.30
2023-05-02T02:30:03.515Z,23.30
2023-05-02T02:31:03.624Z,23.30
2023-05-02T02:32:03.450Z,29.20
2023-05-02T02:33:03.340Z,29.20
2023-05-02T02:34:03.303Z,29.20
2023-05-02T02:35:03.299Z,29.20
2023-05-02T02:36:03.267Z,29.20
2023-05-02T02:37:02.983Z,36.30
2023-05-02T02:38:03.118Z,36.30
2023-05-02T02:39:03.478Z,36.30
2023-05-02T02:40:03.501Z,36.30
2023-05-02T02:41:02.947Z,36.30
2023-05-02T02:42:03.247Z,38.80
2023-05-02T02:43:03.741Z,38.80
2023-05-02T02:44:03.185Z,38.80
2023-05-02T02:45:03.394Z,38.80
2023-05-02T02:46:03.674Z,38.80
2023-05-02T02:47:02.996Z,41.10
2023-05-02T02:48:03.197Z,41.10
2023-05-02T02:49:02.853Z,41.10
2023-05-02T02:50:02.817Z,41.10
2023-05-02T02:51:03.057Z,41.10
2023-05-02T02:52:03.639Z,40.30
2023-05-02T02:53:03.754Z,40.30
2023-05-02T02:54:12.443Z,40.30
2023-05-02T02:55:03.347Z,40.30
2023-05-02T02:56:03.246Z,40.30
2023-05-02T02:57:02.892Z,41.50
2023-05-02T02:58:03.173Z,41.50
2023-05-02T02:59:02.920Z,41.50
2023-05-02T03:00:03.329Z,41.50
2023-05-02T03:01:03.328Z,41.50
2023-05-02T03:02:03.120Z,42.60
2023-05-02T03:03:03.442Z,42.60
2023-05-02T03:04:03.506Z,42.60
2023-05-02T03:05:03.294Z,42.60
2023-05-02T03:06:02.949Z,42.60
2023-05-02T03:07:02.501Z,43.70
2023-05-02T03:08:02.453Z,43.70
2023-05-02T03:09:02.165Z,43.70
2023-05-02T03:10:02.479Z,43.70
2023-05-02T03:11:02.744Z,43.70
2023-05-02T03:12:02.612Z,44.70
2023-05-02T03:13:02.601Z,44.70
2023-05-02T03:14:02.690Z,44.70
2023-05-02T03:15:03.016Z,44.70
2023-05-02T03:16:02.938Z,44.70
2023-05-02T03:17:03.619Z,47.20
2023-05-02T03:18:03.484Z,47.20
2023-05-02T03:19:03.210Z,47.20
2023-05-02T03:20:03.405Z,47.20
2023-05-02T03:21:03.499Z,47.20
2023-05-02T03:22:02.943Z,49.40
2023-05-02T03:23:02.992Z,49.40
2023-05-02T03:24:02.954Z,49.40
2023-05-02T03:25:02.841Z,49.40
2023-05-02T03:26:03.205Z,49.40
2023-05-02T03:27:02.143Z,50.40
2023-05-02T03:28:02.609Z,50.40
2023-05-02T03:29:02.672Z,50.40
2023-05-02T03:30:02.968Z,50.40
2023-05-02T03:31:02.639Z,50.40
2023-05-02T03:32:02.654Z,49.50
2023-05-02T03:33:02.719Z,49.50
2023-05-02T03:34:03.124Z,49.50
2023-05-02T03:35:02.887Z,49.50
2023-05-02T03:36:02.888Z,49.50
2023-05-02T03:37:03.229Z,45.70
2023-05-02T03:38:03.699Z,45.70
2023-05-02T03:39:03.468Z,45.70
2023-05-02T03:40:03.233Z,45.70
2023-05-02T03:41:03.543Z,45.70
2023-05-02T03:42:02.746Z,43.90
2023-05-02T03:43:02.447Z,43.90
2023-05-02T03:44:02.512Z,43.90
2023-05-02T03:45:02.949Z,43.90
2023-05-02T03:46:02.767Z,43.90
2023-05-02T03:47:02.910Z,42.30
2023-05-02T03:48:03.070Z,42.30
2023-05-02T03:49:03.296Z,42.30
2023-05-02T03:50:03.368Z,42.30
2023-05-02T03:51:03.270Z,42.30
2023-05-02T03:52:02.960Z,40.10
2023-05-02T03:53:03.054Z,40.10
2023-05-02T03:54:02.987Z,40.10
2023-05-02T03:55:03.089Z,40.10
2023-05-02T03:56:03.243Z,40.10
2023-05-02T03:57:02.442Z,39.90
2023-05-02T03:58:02.585Z,39.90
2023-05-02T03:59:02.650Z,39.90
2023-05-02T04:00:02.963Z,39.90
2023-05-02T04:01:02.550Z,39.90
2023-05-02T04:02:02.387Z,39.70
2023-05-02T04:03:02.681Z,39.70
2023-05-02T04:04:02.947Z,39.70
2023-05-02T04:05:02.817Z,39.70
2023-05-02T04:06:03.001Z,39.70
2023-05-02T04:07:02.191Z,38.20
2023-05-02T04:08:02.119Z,38.20
2023-05-02T04:09:02.314Z,38.20
2023-05-02T04:10:02.203Z,38.20
2023-05-02T04:11:02.304Z,38.20
2023-05-02T04:12:02.834Z,38.30
2023-05-02T04:13:02.506Z,38.30
2023-05-02T04:14:03.135Z,38.30
2023-05-02T04:15:03.057Z,38.30
2023-05-02T04:16:02.517Z,38.30
2023-05-02T04:17:02.547Z,36.20
2023-05-02T04:18:02.502Z,36.20
2023-05-02T04:19:02.046Z,36.20
2023-05-02T04:20:05.054Z,36.20
2023-05-02T04:21:02.380Z,36.20
2023-05-02T04:22:02.813Z,37.20
2023-05-02T04:23:02.766Z,37.20
2023-05-02T04:24:02.329Z,37.20
2023-05-02T04:25:02.509Z,37.20
2023-05-02T04:26:02.962Z,37.20
2023-05-02T04:27:02.865Z,37.90
2023-05-02T04:28:02.398Z,37.90
2023-05-02T04:29:02.784Z,37.90
2023-05-02T04:30:03.154Z,37.90
2023-05-02T04:31:02.943Z,37.90
2023-05-02T04:32:01.894Z,35.80
2023-05-02T04:33:02.300Z,35.80
2023-05-02T04:34:01.822Z,35.80
2023-05-02T04:35:02.015Z,35.80
2023-05-02T04:36:02.258Z,35.80
2023-05-02T04:37:02.680Z,37.00
2023-05-02T04:38:02.804Z,37.00
2023-05-02T04:39:03.041Z,37.00
2023-05-02T04:40:02.718Z,37.00
2023-05-02T04:41:09.346Z,37.00
2023-05-02T04:42:01.974Z,36.10
2023-05-02T04:43:01.990Z,36.10
2023-05-02T04:44:01.876Z,36.10
2023-05-02T04:45:02.186Z,36.10
2023-05-02T04:46:01.807Z,36.10
2023-05-02T04:47:02.571Z,35.90
2023-05-02T04:48:02.283Z,35.90
2023-05-02T04:49:02.744Z,35.90
2023-05-02T04:50:02.700Z,35.90
2023-05-02T04:51:02.113Z,35.90
2023-05-02T04:52:02.723Z,35.00
2023-05-02T04:53:02.461Z,35.00
2023-05-02T04:54:02.664Z,35.00
2023-05-02T04:55:03.033Z,35.00
2023-05-02T04:56:02.742Z,35.00
2023-05-02T04:57:02.477Z,35.00
2023-05-02T04:58:02.380Z,35.00
2023-05-02T04:59:02.243Z,35.00
2023-05-02T05:00:02.391Z,35.00
2023-05-02T05:01:02.325Z,35.00
2023-05-02T05:02:02.604Z,35.60
2023-05-02T05:03:02.563Z,35.60
2023-05-02T05:04:03.030Z,35.60
2023-05-02T05:05:03.019Z,35.60
2023-05-02T05:06:02.580Z,35.60
2023-05-02T05:07:02.048Z,35.30
2023-05-02T05:08:02.487Z,35.30
2023-05-02T05:09:02.046Z,35.30
2023-05-02T05:10:02.622Z,35.30
2023-05-02T05:11:02.514Z,35.30
2023-05-02T05:12:02.486Z,34.90
2023-05-02T05:13:02.581Z,34.90
2023-05-02T05:14:02.370Z,34.90
2023-05-02T05:15:02.363Z,34.90
2023-05-02T05:16:02.176Z,34.90
2023-05-02T05:17:02.471Z,36.60
2023-05-02T05:18:02.633Z,36.60
2023-05-02T05:19:02.440Z,36.60
2023-05-02T05:20:02.687Z,36.60
2023-05-02T05:21:02.548Z,36.60
2023-05-02T05:22:03.045Z,36.70
2023-05-02T05:23:02.980Z,36.70
2023-05-02T05:24:03.271Z,36.70
2023-05-02T05:25:03.259Z,36.70
2023-05-02T05:26:02.718Z,36.70
2023-05-02T05:27:02.493Z,37.70
2023-05-02T05:28:02.441Z,37.70
2023-05-02T05:29:02.284Z,37.70
2023-05-02T05:30:02.658Z,37.70
2023-05-02T05:31:02.311Z,37.70
2023-05-02T05:32:02.310Z,38.10
2023-05-02T05:33:02.224Z,38.10
2023-05-02T05:34:02.394Z,38.10
2023-05-02T05:35:02.634Z,38.10
2023-05-02T05:36:02.370Z,38.10
2023-05-02T05:37:02.755Z,37.60
2023-05-02T05:38:03.102Z,37.60
2023-05-02T05:39:03.084Z,37.60
2023-05-02T05:40:03.191Z,37.60
2023-05-02T05:41:02.582Z,37.60
2023-05-02T05:42:02.043Z,37.30
2023-05-02T05:43:02.081Z,37.30
2023-05-02T05:44:02.519Z,37.30
2023-05-02T05:45:02.170Z,37.30
2023-05-02T05:46:01.974Z,37.30
2023-05-02T05:47:02.629Z,35.80
2023-05-02T05:48:02.436Z,35.80
2023-05-02T05:49:02.724Z,35.80
2023-05-02T05:50:02.738Z,35.80
2023-05-02T05:51:02.132Z,35.80
2023-05-02T05:52:02.913Z,35.50
2023-05-02T05:53:02.585Z,35.50
2023-05-02T05:54:02.558Z,35.50
2023-05-02T05:55:02.625Z,35.50
2023-05-02T05:56:02.525Z,35.50
2023-05-02T05:57:02.790Z,33.70
2023-05-02T05:58:02.589Z,33.70
2023-05-02T05:59:02.909Z,33.70
2023-05-02T06:00:03.003Z,33.70
2023-05-02T06:01:02.529Z,33.70
2023-05-02T06:02:02.998Z,34.40
2023-05-02T06:03:03.228Z,34.40
2023-05-02T06:04:03.125Z,34.40
2023-05-02T06:05:02.994Z,34.40
2023-05-02T06:06:03.284Z,34.40
2023-05-02T06:07:02.630Z,34.40
2023-05-02T06:08:02.514Z,34.40
2023-05-02T06:09:02.467Z,34.40
2023-05-02T06:10:03.005Z,34.40
2023-05-02T06:11:02.754Z,34.40
2023-05-02T06:12:03.015Z,35.30
2023-05-02T06:13:03.064Z,35.30
2023-05-02T06:14:02.814Z,35.30
2023-05-02T06:15:03.083Z,35.30
2023-05-02T06:16:03.021Z,35.30
2023-05-02T06:17:03.097Z,36.00
2023-05-02T06:18:03.298Z,36.00
2023-05-02T06:19:03.030Z,36.00
2023-05-02T06:20:03.261Z,36.00
2023-05-02T06:21:03.331Z,36.00
2023-05-02T06:22:02.746Z,35.40
2023-05-02T06:23:02.739Z,35.40
2023-05-02T06:24:03.167Z,35.40
2023-05-02T06:25:02.748Z,35.40
2023-05-02T06:26:02.896Z,35.40
2023-05-02T06:27:02.842Z,36.80
2023-05-02T06:28:02.212Z,36.80
2023-05-02T06:29:02.746Z,36.80
2023-05-02T06:30:02.931Z,36.80
2023-05-02T06:31:02.697Z,36.80
2023-05-02T06:32:03.512Z,36.90
2023-05-02T06:33:02.989Z,36.90
2023-05-02T06:34:03.373Z,36.90
2023-05-02T06:35:02.925Z,36.90
2023-05-02T06:36:02.962Z,36.90
2023-05-02T06:37:03.111Z,36.70
2023-05-02T06:38:03.548Z,36.70
2023-05-02T06:39:02.957Z,36.70
2023-05-02T06:40:03.475Z,36.70
2023-05-02T06:41:03.112Z,36.70
2023-05-02T06:42:02.474Z,37.50
2023-05-02T06:43:02.315Z,37.50
2023-05-02T06:44:02.230Z,37.50
2023-05-02T06:45:02.126Z,37.50
2023-05-02T06:46:02.656Z,37.50
2023-05-02T06:47:02.897Z,34.80
2023-05-02T06:48:03.294Z,34.80
2023-05-02T06:49:02.795Z,34.80
2023-05-02T06:50:03.209Z,34.80
2023-05-02T06:51:03.254Z,34.80
2023-05-02T06:52:03.257Z,34.60
2023-05-02T06:53:03.557Z,34.60
2023-05-02T06:54:03.123Z,34.60
2023-05-02T06:55:02.922Z,34.60
2023-05-02T06:56:02.998Z,34.60
2023-05-02T06:57:02.520Z,35.30
2023-05-02T06:58:02.494Z,35.30
2023-05-02T06:59:02.551Z,35.30
2023-05-02T07:00:02.989Z,35.30
2023-05-02T07:01:02.901Z,35.30
2023-05-02T07:02:05.140Z,35.10
2023-05-02T07:03:02.328Z,35.10
2023-05-02T07:04:02.597Z,35.10
2023-05-02T07:05:02.606Z,35.10
2023-05-02T07:06:02.805Z,35.10
2023-05-02T07:07:03.247Z,34.40
2023-05-02T07:08:02.693Z,34.40
2023-05-02T07:09:02.941Z,34.40
2023-05-02T07:10:03.195Z,34.40
2023-05-02T07:11:03.158Z,34.40
2023-05-02T07:12:06.066Z,32.40
2023-05-02T07:13:03.517Z,32.40
2023-05-02T07:14:02.961Z,32.40
2023-05-02T07:15:03.412Z,32.40
2023-05-02T07:16:03.299Z,32.40
2023-05-02T07:17:02.817Z,31.50
2023-05-02T07:18:02.605Z,31.50
2023-05-02T07:19:02.717Z,31.50
2023-05-02T07:20:02.793Z,31.50
2023-05-02T07:21:02.713Z,31.50
2023-05-02T07:22:03.173Z,31.00
2023-05-02T07:23:02.846Z,31.00
2023-05-02T07:24:03.312Z,31.00
2023-05-02T07:25:03.063Z,31.00
2023-05-02T07:26:05.547Z,31.00
2023-05-02T07:27:02.455Z,29.60
2023-05-02T07:28:02.542Z,29.60
2023-05-02T07:29:02.535Z,29.60
2023-05-02T07:30:03.252Z,29.60
2023-05-02T07:31:02.708Z,29.60
2023-05-02T07:32:03.376Z,30.50
2023-05-02T07:33:03.216Z,30.50
2023-05-02T07:34:03.047Z,30.50
2023-05-02T07:35:03.417Z,30.50
2023-05-02T07:36:03.387Z,30.50
2023-05-02T07:37:02.845Z,31.00
2023-05-02T07:38:02.477Z,31.00
2023-05-02T07:39:02.493Z,31.00
2023-05-02T07:40:03.626Z,31.00
2023-05-02T07:41:02.683Z,31.00
2023-05-02T07:42:03.147Z,29.30
2023-05-02T07:43:03.546Z,29.30
2023-05-02T07:44:03.615Z,29.30
2023-05-02T07:45:03.132Z,29.30
2023-05-02T07:46:03.597Z,29.30
2023-05-02T07:47:02.604Z,27.40
2023-05-02T07:48:02.626Z,27.40
2023-05-02T07:49:02.917Z,27.40
2023-05-02T07:50:03.591Z,27.40
2023-05-02T07:51:03.101Z,27.40
2023-05-02T07:52:03.082Z,23.60
2023-05-02T07:53:03.066Z,23.60
2023-05-02T07:54:03.101Z,23.60
2023-05-02T07:56:03.535Z,23.60
2023-05-02T07:57:03.166Z,19.70
2023-05-02T07:58:02.651Z,19.70
2023-05-02T07:59:03.577Z,19.70
2023-05-02T08:00:03.707Z,19.70
2023-05-02T08:01:02.725Z,19.70
2023-05-02T08:02:03.729Z,19.20
2023-05-02T08:03:03.660Z,19.20
2023-05-02T08:04:03.674Z,19.20
2023-05-02T08:05:03.408Z,19.20
2023-05-02T08:06:03.616Z,19.20
2023-05-02T08:07:02.619Z,18.60
2023-05-02T08:08:02.712Z,18.60
2023-05-02T08:09:02.881Z,18.60
2023-05-02T08:10:02.552Z,18.60
2023-05-02T08:11:02.772Z,18.60
2023-05-02T08:12:03.501Z,18.00
2023-05-02T08:13:03.424Z,18.00
2023-05-02T08:14:03.203Z,18.00
2023-05-02T08:15:03.251Z,18.00
2023-05-02T08:16:03.146Z,18.00
2023-05-02T08:17:02.414Z,19.30
2023-05-02T08:18:02.461Z,19.30
2023-05-02T08:19:02.740Z,19.30
2023-05-02T08:20:02.968Z,19.30
2023-05-02T08:21:02.818Z,19.30
2023-05-02T08:22:02.564Z,20.10
2023-05-02T08:23:02.706Z,20.10
2023-05-02T08:24:02.684Z,20.10
2023-05-02T08:25:02.922Z,20.10
2023-05-02T08:26:02.962Z,20.10
2023-05-02T08:27:03.121Z,22.20
2023-05-02T08:28:03.206Z,22.20
2023-05-02T08:29:03.266Z,22.20
2023-05-02T08:30:03.863Z,22.20
2023-05-02T08:31:03.335Z,22.20
2023-05-02T08:32:03.214Z,25.20
2023-05-02T08:33:02.989Z,25.20
2023-05-02T08:34:03.216Z,25.20
2023-05-02T08:35:03.162Z,25.20
2023-05-02T08:36:03.233Z,25.20
2023-05-02T08:37:03.133Z,25.40
2023-05-02T08:38:03.505Z,25.40
2023-05-02T08:39:03.539Z,25.40
2023-05-02T08:40:03.482Z,25.40
2023-05-02T08:41:03.263Z,25.40
2023-05-02T08:42:02.555Z,26.00
2023-05-02T08:43:02.502Z,26.00
2023-05-02T08:44:02.358Z,26.00
2023-05-02T08:45:02.390Z,26.00
2023-05-02T08:46:02.827Z,26.00
2023-05-02T08:47:02.963Z,25.30
2023-05-02T08:48:02.610Z,25.30
2023-05-02T08:49:02.909Z,25.30
2023-05-02T08:50:03.327Z,25.30
2023-05-02T08:51:03.009Z,25.30
2023-05-02T08:52:02.766Z,21.20
2023-05-02T08:53:02.603Z,21.20
2023-05-02T08:54:03.073Z,21.20
2023-05-02T08:55:03.445Z,21.20
2023-05-02T08:56:03.250Z,21.20
2023-05-02T08:57:03.629Z,15.90
2023-05-02T08:58:03.486Z,15.90
2023-05-02T08:59:03.397Z,15.90
2023-05-02T09:00:03.106Z,15.90
2023-05-02T09:01:03.368Z,15.90
2023-05-02T09:02:02.683Z,12.90
2023-05-02T09:03:02.661Z,12.90
2023-05-02T09:04:02.829Z,12.90
2023-05-02T09:05:02.780Z,12.90
2023-05-02T09:06:02.512Z,12.90
2023-05-02T09:07:02.650Z,11.60
2023-05-02T09:08:02.975Z,11.60
2023-05-02T09:09:02.473Z,11.60
2023-05-02T09:10:03.033Z,11.60
2023-05-02T09:11:02.881Z,11.60
2023-05-02T09:12:03.320Z,12.50
2023-05-02T09:13:03.274Z,12.50
2023-05-02T09:14:03.217Z,12.50
2023-05-02T09:15:02.828Z,12.50
2023-05-02T09:16:03.130Z,12.50
2023-05-02T09:17:02.739Z,15.50
2023-05-02T09:18:02.756Z,15.50
2023-05-02T09:19:02.833Z,15.50
2023-05-02T09:20:02.872Z,15.50
2023-05-02T09:21:02.882Z,15.50
2023-05-02T09:22:02.254Z,12.80
2023-05-02T09:23:02.401Z,12.80
2023-05-02T09:24:02.085Z,12.80
2023-05-02T09:25:02.436Z,12.80
2023-05-02T09:26:02.212Z,12.80
2023-05-02T09:27:02.865Z,11.10
2023-05-02T09:28:03.065Z,11.10
2023-05-02T09:29:03.003Z,11.10
2023-05-02T09:30:02.911Z,11.10
2023-05-02T09:31:02.663Z,11.10
2023-05-02T09:32:02.864Z,11.30
2023-05-02T09:33:03.122Z,11.30
2023-05-02T09:34:02.913Z,11.30
2023-05-02T09:35:03.143Z,11.30
2023-05-02T09:36:02.523Z,11.30
2023-05-02T09:37:02.302Z,11.30
2023-05-02T09:38:02.389Z,11.30
2023-05-02T09:39:02.533Z,11.30
2023-05-02T09:40:02.594Z,11.30
2023-05-02T09:41:01.961Z,11.30
2023-05-02T09:42:02.338Z,11.40
2023-05-02T09:43:02.478Z,11.40
2023-05-02T09:44:02.145Z,11.40
2023-05-02T09:45:02.366Z,11.40
2023-05-02T09:46:02.664Z,11.40
2023-05-02T09:47:02.139Z,10.50
2023-05-02T09:48:02.814Z,10.50
2023-05-02T09:49:02.239Z,10.50
2023-05-02T09:50:02.739Z,10.50
2023-05-02T09:51:02.543Z,10.50
2023-05-02T09:52:02.922Z,9.60
2023-05-02T09:53:03.061Z,9.60
2023-05-02T09:54:02.914Z,9.60
2023-05-02T09:55:02.890Z,9.60
2023-05-02T09:56:02.709Z,9.60
2023-05-02T09:57:03.227Z,11.10
2023-05-02T09:58:03.294Z,11.10
2023-05-02T09:59:03.392Z,11.10
2023-05-02T10:00:03.247Z,11.10
2023-05-02T10:01:03.538Z,11.10
2023-05-02T10:02:02.650Z,11.30
2023-05-02T10:03:02.357Z,11.30
2023-05-02T10:04:02.119Z,11.30
2023-05-02T10:05:02.832Z,11.30
2023-05-02T10:06:02.248Z,11.30
2023-05-02T10:07:02.941Z,9.90
2023-05-02T10:08:03.156Z,9.90
2023-05-02T10:09:03.027Z,9.90
2023-05-02T10:10:02.892Z,9.90
2023-05-02T10:11:03.102Z,9.90
2023-05-02T10:12:03.076Z,9.50
2023-05-02T10:13:03.085Z,9.50
2023-05-02T10:14:03.202Z,9.50
2023-05-02T10:15:02.951Z,9.50
2023-05-02T10:16:02.998Z,9.50
2023-05-02T10:17:03.239Z,10.40
2023-05-02T10:18:02.880Z,10.40
2023-05-02T10:19:03.213Z,10.40
2023-05-02T10:20:03.365Z,10.40
2023-05-02T10:21:03.308Z,10.40
2023-05-02T10:22:03.353Z,10.90
2023-05-02T10:23:03.170Z,10.90
2023-05-02T10:24:02.940Z,10.90
2023-05-02T10:25:03.516Z,10.90
2023-05-02T10:26:03.126Z,10.90
2023-05-02T10:27:02.921Z,13.90
2023-05-02T10:28:02.851Z,13.90
2023-05-02T10:29:02.674Z,13.90
2023-05-02T10:30:02.796Z,13.90
2023-05-02T10:31:02.758Z,13.90
2023-05-02T10:32:03.103Z,17.50
2023-05-02T10:33:03.136Z,17.50
2023-05-02T10:34:02.519Z,17.50
2023-05-02T10:35:02.999Z,17.50
2023-05-02T10:36:02.605Z,17.50
2023-05-02T10:37:03.281Z,21.10
2023-05-02T10:38:03.141Z,21.10
2023-05-02T10:39:03.130Z,21.10
2023-05-02T10:40:03.065Z,21.10
2023-05-02T10:41:02.963Z,21.10
2023-05-02T10:42:03.634Z,20.80
2023-05-02T10:43:03.550Z,20.80
2023-05-02T10:44:03.239Z,20.80
2023-05-02T10:45:03.458Z,20.80
2023-05-02T10:46:03.049Z,20.80
2023-05-02T10:47:02.914Z,16.00
2023-05-02T10:48:02.292Z,16.00
2023-05-02T10:49:02.458Z,16.00
2023-05-02T10:50:02.713Z,16.00
2023-05-02T10:51:02.661Z,16.00
2023-05-02T10:52:03.143Z,10.20
2023-05-02T10:53:03.249Z,10.20
2023-05-02T10:54:03.222Z,10.20
2023-05-02T10:55:03.045Z,10.20
2023-05-02T10:56:02.722Z,10.20
2023-05-02T10:57:03.526Z,8.40
2023-05-02T10:58:03.331Z,8.40
2023-05-02T10:59:03.411Z,8.40
2023-05-02T11:00:03.070Z,8.40
2023-05-02T11:01:03.253Z,8.40
2023-05-02T11:02:04.099Z,7.50
2023-05-02T11:03:02.823Z,7.50
2023-05-02T11:04:02.845Z,7.50
2023-05-02T11:05:03.112Z,7.50
2023-05-02T11:06:02.829Z,7.50
2023-05-02T11:07:03.194Z,8.40
2023-05-02T11:08:03.083Z,8.40
2023-05-02T11:09:03.079Z,8.40
2023-05-02T11:10:02.916Z,8.40
2023-05-02T11:11:03.252Z,8.40
2023-05-02T11:12:03.351Z,7.50
2023-05-02T11:13:02.952Z,7.50
2023-05-02T11:14:03.315Z,7.50
2023-05-02T11:15:03.555Z,7.50
2023-05-02T11:16:02.989Z,7.50
2023-05-02T11:17:02.773Z,8.30
2023-05-02T11:18:02.528Z,8.30
2023-05-02T11:19:02.158Z,8.30
2023-05-02T11:20:02.306Z,8.30
2023-05-02T11:21:02.711Z,8.30
2023-05-02T11:22:03.116Z,8.90
2023-05-02T11:23:03.008Z,8.90
2023-05-02T11:24:02.598Z,8.90
2023-05-02T11:25:03.114Z,8.90
2023-05-02T11:26:02.689Z,8.90
2023-05-02T11:27:03.299Z,9.70
2023-05-02T11:28:02.689Z,9.70
2023-05-02T11:29:02.729Z,9.70
2023-05-02T11:30:02.884Z,9.70
2023-05-02T11:31:02.854Z,9.70
2023-05-02T11:32:02.219Z,9.90
2023-05-02T11:33:02.642Z,9.90
2023-05-02T11:34:02.169Z,9.90
2023-05-02T11:35:02.700Z,9.90
2023-05-02T11:36:02.617Z,9.90
2023-05-02T11:37:02.690Z,9.20
2023-05-02T11:38:02.686Z,9.20
2023-05-02T11:39:03.129Z,9.20
2023-05-02T11:40:02.751Z,9.20
2023-05-02T11:41:02.985Z,9.20
2023-05-02T11:42:03.217Z,8.70
2023-05-02T11:43:02.467Z,8.70
2023-05-02T11:44:02.750Z,8.70
2023-05-02T11:45:02.453Z,8.70
2023-05-02T11:46:02.723Z,8.70
2023-05-02T11:47:02.791Z,10.20
2023-05-02T11:48:01.984Z,10.20
2023-05-02T11:49:02.468Z,10.20
2023-05-02T11:50:02.012Z,10.20
2023-05-02T11:51:02.506Z,10.20
2023-05-02T11:52:02.046Z,12.50
2023-05-02T11:53:03.023Z,12.50
2023-05-02T11:54:02.814Z,12.50
2023-05-02T11:55:02.794Z,12.50
2023-05-02T11:56:02.954Z,12.50
2023-05-02T11:57:02.452Z,8.50
2023-05-02T11:58:02.904Z,8.50
2023-05-02T11:59:03.137Z,8.50
2023-05-02T12:00:03.434Z,8.50
2023-05-02T12:01:03.294Z,8.50
2023-05-02T12:02:03.145Z,8.40
2023-05-02T12:03:03.546Z,8.40
2023-05-02T12:04:03.376Z,8.40
2023-05-02T12:05:03.287Z,8.40
2023-05-02T12:06:03.830Z,8.40
2023-05-02T12:07:03.618Z,8.60
2023-05-02T12:08:03.635Z,8.60
2023-05-02T12:09:03.548Z,8.60
2023-05-02T12:10:03.403Z,8.60
2023-05-02T12:11:03.632Z,8.60
2023-05-02T12:12:03.596Z,9.00
2023-05-02T12:13:02.616Z,9.00
2023-05-02T12:14:02.754Z,9.00
2023-05-02T12:15:02.654Z,9.00
2023-05-02T12:16:02.422Z,9.00
2023-05-02T12:17:02.888Z,8.30
2023-05-02T12:18:03.510Z,8.30
2023-05-02T12:19:03.484Z,8.30
2023-05-02T12:20:03.557Z,8.30
2023-05-02T12:21:03.624Z,8.30
2023-05-02T12:22:03.528Z,8.00
2023-05-02T12:23:02.993Z,8.00
2023-05-02T12:24:03.355Z,8.00
2023-05-02T12:25:03.341Z,8.00
2023-05-02T12:26:02.781Z,8.00
2023-05-02T12:27:02.841Z,7.90
2023-05-02T12:28:03.764Z,7.90
2023-05-02T12:29:03.555Z,7.90
2023-05-02T12:30:04.243Z,7.90
2023-05-02T12:31:03.163Z,7.90
2023-05-02T12:32:03.454Z,6.80
2023-05-02T12:33:03.327Z,6.80
2023-05-02T12:34:03.297Z,6.80
2023-05-02T12:35:03.101Z,6.80
2023-05-02T12:36:03.283Z,6.80
2023-05-02T12:37:02.614Z,6.40
2023-05-02T12:38:02.298Z,6.40
2023-05-02T12:39:02.354Z,6.40
2023-05-02T12:40:02.831Z,6.40
2023-05-02T12:41:02.940Z,6.40
2023-05-02T12:42:02.645Z,7.30
2023-05-02T12:43:03.509Z,7.30
2023-05-02T12:44:03.231Z,7.30
2023-05-02T12:45:03.481Z,7.30
2023-05-02T12:46:03.204Z,7.30
2023-05-02T12:47:03.583Z,6.60
2023-05-02T12:48:03.062Z,6.60
2023-05-02T12:49:03.120Z,6.60
2023-05-02T12:50:03.467Z,6.60
2023-05-02T12:51:03.461Z,6.60
2023-05-02T12:52:03.266Z,7.50
2023-05-02T12:53:02.492Z,7.50
2023-05-02T12:54:02.897Z,7.50
2023-05-02T12:55:02.906Z,7.50
2023-05-02T12:56:03.051Z,7.50
2023-05-02T12:57:02.861Z,7.80